sensor_id;sensor_type;location;lat;lon;timestamp;pressure;altitude;pressure_sealevel;temperature;humidity
41140;BME280;26881;48.784;9.192;2022-09-12T00:03:31;98734.47;;;15.24;82.96
41140;BME280;26881;48.784;9.192;2022-09-12T00:08:55;98731.66;;;15.03;83.56
41140;BME280;26881;48.784;9.192;2022-09-12T00:14:18;98733.16;;;15.18;82.54
41140;BME280;26881;48.784;9.192;2022-09-12T00:19:40;98727.94;;;15.06;83.49
41140;BME280;26881;48.784;9.192;2022-09-12T00:25:02;98723.66;;;15.05;83.42
41140;BME280;26881;48.784;9.192;2022-09-12T00:30:24;98732.19;;;15.20;82.93
41140;BME280;26881;48.784;9.192;2022-09-12T00:35:49;98731.16;;;14.98;83.82
41140;BME280;26881;48.784;9.192;2022-09-12T00:41:19;98724.03;;;15.11;83.15
41140;BME280;26881;48.784;9.192;2022-09-12T00:46:46;98718.38;;;15.05;83.58
41140;BME280;26881;48.784;9.192;2022-09-12T00:52:12;98710.94;;;14.99;83.98
41140;BME280;26881;48.784;9.192;2022-09-12T00:57:39;98709.41;;;15.07;83.37
41140;BME280;26881;48.784;9.192;2022-09-12T01:03:06;98715.66;;;14.82;84.74
41140;BME280;26881;48.784;9.192;2022-09-12T01:08:30;98714.16;;;14.67;85.91
41140;BME280;26881;48.784;9.192;2022-09-12T01:13:53;98700.38;;;14.87;85.03
41140;BME280;26881;48.784;9.192;2022-09-12T01:47:20;98679.81;;;14.68;84.71
41140;BME280;26881;48.784;9.192;2022-09-12T01:52:58;98670.50;;;14.51;86.24
41140;BME280;26881;48.784;9.192;2022-09-12T01:58:34;98674.00;;;14.28;87.50
41140;BME280;26881;48.784;9.192;2022-09-12T02:04:12;98658.09;;;14.29;87.65
41140;BME280;26881;48.784;9.192;2022-09-12T02:09:40;98661.34;;;14.33;87.07
41140;BME280;26881;48.784;9.192;2022-09-12T02:15:07;98655.25;;;14.32;86.98
41140;BME280;26881;48.784;9.192;2022-09-12T02:20:33;98644.94;;;14.53;85.58
41140;BME280;26881;48.784;9.192;2022-09-12T02:26:19;98650.75;;;14.22;87.26
41140;BME280;26881;48.784;9.192;2022-09-12T02:31:47;98658.78;;;14.20;87.29
41140;BME280;26881;48.784;9.192;2022-09-12T02:42:50;98636.34;;;13.90;88.89
41140;BME280;26881;48.784;9.192;2022-09-12T02:48:17;98636.19;;;13.81;89.64
41140;BME280;26881;48.784;9.192;2022-09-12T02:53:40;98635.28;;;13.93;88.84
41140;BME280;26881;48.784;9.192;2022-09-12T02:59:06;98637.44;;;13.75;89.52
41140;BME280;26881;48.784;9.192;2022-09-12T03:04:37;98632.66;;;13.93;88.40
41140;BME280;26881;48.784;9.192;2022-09-12T03:15:54;98637.84;;;13.82;88.78
41140;BME280;26881;48.784;9.192;2022-09-12T03:21:42;98635.63;;;13.88;88.50
41140;BME280;26881;48.784;9.192;2022-09-12T03:27:15;98638.50;;;14.09;86.20
41140;BME280;26881;48.784;9.192;2022-09-12T03:32:44;98646.69;;;13.81;88.40
41140;BME280;26881;48.784;9.192;2022-09-12T03:38:06;98641.50;;;13.92;87.54
41140;BME280;26881;48.784;9.192;2022-09-12T03:43:28;98637.41;;;13.88;87.33
41140;BME280;26881;48.784;9.192;2022-09-12T03:48:50;98641.13;;;13.73;88.48
41140;BME280;26881;48.784;9.192;2022-09-12T03:54:12;98642.03;;;13.84;87.38
41140;BME280;26881;48.784;9.192;2022-09-12T03:59:34;98639.81;;;13.91;87.26
41140;BME280;26881;48.784;9.192;2022-09-12T04:04:55;98645.00;;;13.80;87.14
41140;BME280;26881;48.784;9.192;2022-09-12T04:10:17;98639.47;;;13.72;88.41
41140;BME280;26881;48.784;9.192;2022-09-12T04:15:39;98640.94;;;13.76;88.30
41140;BME280;26881;48.784;9.192;2022-09-12T04:21:05;98636.44;;;13.65;88.09
41140;BME280;26881;48.784;9.192;2022-09-12T04:26:27;98635.88;;;13.73;88.55
41140;BME280;26881;48.784;9.192;2022-09-12T04:31:50;98637.41;;;13.88;86.88
41140;BME280;26881;48.784;9.192;2022-09-12T04:37:12;98639.88;;;13.78;86.91
41140;BME280;26881;48.784;9.192;2022-09-12T04:42:33;98639.78;;;13.54;88.32
41140;BME280;26881;48.784;9.192;2022-09-12T04:47:55;98633.88;;;13.76;87.54
41140;BME280;26881;48.784;9.192;2022-09-12T04:53:17;98635.13;;;13.70;87.13
41140;BME280;26881;48.784;9.192;2022-09-12T04:58:39;98636.00;;;13.71;87.16
41140;BME280;26881;48.784;9.192;2022-09-12T05:04:01;98632.03;;;13.40;88.72
41140;BME280;26881;48.784;9.192;2022-09-12T05:09:23;98628.34;;;13.42;88.67
41140;BME280;26881;48.784;9.192;2022-09-12T05:14:44;98635.41;;;13.55;88.15
41140;BME280;26881;48.784;9.192;2022-09-12T05:20:07;98641.53;;;13.30;89.98
41140;BME280;26881;48.784;9.192;2022-09-12T05:25:30;98640.00;;;13.25;90.32
41140;BME280;26881;48.784;9.192;2022-09-12T05:31:07;98630.59;;;13.36;89.83
41140;BME280;26881;48.784;9.192;2022-09-12T05:36:29;98639.19;;;13.38;89.32
41140;BME280;26881;48.784;9.192;2022-09-12T05:41:51;98645.81;;;13.31;90.31
41140;BME280;26881;48.784;9.192;2022-09-12T05:47:13;98647.47;;;13.19;91.33
41140;BME280;26881;48.784;9.192;2022-09-12T05:52:37;98655.16;;;13.22;91.56
41140;BME280;26881;48.784;9.192;2022-09-12T05:57:59;98642.34;;;13.30;90.85
41140;BME280;26881;48.784;9.192;2022-09-12T06:03:20;98641.94;;;13.36;90.52
41140;BME280;26881;48.784;9.192;2022-09-12T06:08:44;98654.50;;;13.69;88.81
41140;BME280;26881;48.784;9.192;2022-09-12T06:14:07;98647.06;;;13.51;89.36
41140;BME280;26881;48.784;9.192;2022-09-12T06:19:29;98644.25;;;13.41;89.98
41140;BME280;26881;48.784;9.192;2022-09-12T06:24:51;98638.72;;;13.69;89.38
41140;BME280;26881;48.784;9.192;2022-09-12T06:30:18;98637.25;;;13.65;89.54
41140;BME280;26881;48.784;9.192;2022-09-12T06:35:46;98636.97;;;13.57;90.61
41140;BME280;26881;48.784;9.192;2022-09-12T06:41:09;98636.44;;;13.65;90.53
41140;BME280;26881;48.784;9.192;2022-09-12T06:46:32;98641.06;;;13.61;91.31
41140;BME280;26881;48.784;9.192;2022-09-12T06:51:54;98637.56;;;13.74;91.25
41140;BME280;26881;48.784;9.192;2022-09-12T06:57:17;98645.66;;;13.70;90.91
41140;BME280;26881;48.784;9.192;2022-09-12T07:02:38;98644.88;;;13.94;89.81
41140;BME280;26881;48.784;9.192;2022-09-12T07:08:00;98647.34;;;14.08;89.44
41140;BME280;26881;48.784;9.192;2022-09-12T07:13:22;98635.88;;;14.33;87.42
41140;BME280;26881;48.784;9.192;2022-09-12T07:18:48;98640.41;;;14.56;85.42
41140;BME280;26881;48.784;9.192;2022-09-12T07:24:10;98637.00;;;14.66;85.56
41140;BME280;26881;48.784;9.192;2022-09-12T07:29:32;98633.81;;;14.85;84.47
41140;BME280;26881;48.784;9.192;2022-09-12T07:34:58;98637.69;;;15.04;82.09
41140;BME280;26881;48.784;9.192;2022-09-12T07:40:20;98631.72;;;15.13;82.32
41140;BME280;26881;48.784;9.192;2022-09-12T07:45:42;98630.66;;;15.27;81.30
41140;BME280;26881;48.784;9.192;2022-09-12T07:51:08;98632.19;;;15.41;80.27
41140;BME280;26881;48.784;9.192;2022-09-12T07:56:30;98630.53;;;15.51;79.53
41140;BME280;26881;48.784;9.192;2022-09-12T08:01:59;98630.75;;;15.59;79.38
41140;BME280;26881;48.784;9.192;2022-09-12T08:07:21;98639.75;;;15.68;78.95
41140;BME280;26881;48.784;9.192;2022-09-12T08:12:43;98633.06;;;15.75;78.75
41140;BME280;26881;48.784;9.192;2022-09-12T08:18:04;98629.06;;;15.92;77.96
41140;BME280;26881;48.784;9.192;2022-09-12T08:23:27;98622.47;;;15.97;77.93
41140;BME280;26881;48.784;9.192;2022-09-12T08:28:49;98622.44;;;16.09;77.41
41140;BME280;26881;48.784;9.192;2022-09-12T08:34:11;98624.81;;;16.23;76.98
41140;BME280;26881;48.784;9.192;2022-09-12T08:39:33;98620.81;;;16.29;77.16
41140;BME280;26881;48.784;9.192;2022-09-12T08:45:18;98628.34;;;16.33;77.51
41140;BME280;26881;48.784;9.192;2022-09-12T08:50:41;98617.50;;;16.48;76.35
41140;BME280;26881;48.784;9.192;2022-09-12T08:56:10;98604.97;;;16.61;75.59
41140;BME280;26881;48.784;9.192;2022-09-12T09:01:42;98603.91;;;16.73;75.00
41140;BME280;26881;48.784;9.192;2022-09-12T09:12:44;98605.97;;;17.02;73.24
41140;BME280;26881;48.784;9.192;2022-09-12T09:18:11;98598.78;;;17.14;72.64
41140;BME280;26881;48.784;9.192;2022-09-12T09:23:43;98601.47;;;17.23;73.09
41140;BME280;26881;48.784;9.192;2022-09-12T09:29:17;98599.00;;;17.32;72.17
41140;BME280;26881;48.784;9.192;2022-09-12T09:34:39;98590.03;;;17.54;70.62
41140;BME280;26881;48.784;9.192;2022-09-12T09:40:16;98587.44;;;17.73;68.33
41140;BME280;26881;48.784;9.192;2022-09-12T09:45:42;98596.44;;;17.92;67.38
41140;BME280;26881;48.784;9.192;2022-09-12T09:51:08;98591.31;;;18.09;64.86
41140;BME280;26881;48.784;9.192;2022-09-12T09:56:35;98579.47;;;18.33;63.02
41140;BME280;26881;48.784;9.192;2022-09-12T10:01:58;98581.69;;;18.47;61.95
41140;BME280;26881;48.784;9.192;2022-09-12T10:07:25;98580.03;;;18.56;59.64
41140;BME280;26881;48.784;9.192;2022-09-12T10:12:47;98573.47;;;18.80;58.35
41140;BME280;26881;48.784;9.192;2022-09-12T10:18:09;98567.84;;;18.92;59.73
41140;BME280;26881;48.784;9.192;2022-09-12T10:23:36;98566.72;;;18.95;59.38
41140;BME280;26881;48.784;9.192;2022-09-12T10:29:10;98569.91;;;18.99;57.48
41140;BME280;26881;48.784;9.192;2022-09-12T10:34:37;98560.53;;;19.04;54.80
41140;BME280;26881;48.784;9.192;2022-09-12T10:40:01;98552.41;;;19.15;53.80
41140;BME280;26881;48.784;9.192;2022-09-12T10:45:31;98551.97;;;19.20;52.96
41140;BME280;26881;48.784;9.192;2022-09-12T10:50:53;98542.63;;;19.26;53.60
41140;BME280;26881;48.784;9.192;2022-09-12T10:56:21;98549.16;;;19.31;54.73
41140;BME280;26881;48.784;9.192;2022-09-12T11:01:47;98532.97;;;19.52;52.38
41140;BME280;26881;48.784;9.192;2022-09-12T11:29:56;98501.84;;;20.00;50.60
41140;BME280;26881;48.784;9.192;2022-09-12T11:40:55;98498.41;;;20.08;49.54
41140;BME280;26881;48.784;9.192;2022-09-12T11:46:36;98480.34;;;20.11;49.12
41140;BME280;26881;48.784;9.192;2022-09-12T11:52:18;98490.59;;;20.24;48.04
41140;BME280;26881;48.784;9.192;2022-09-12T11:57:53;98486.50;;;20.56;45.68
41140;BME280;26881;48.784;9.192;2022-09-12T12:03:35;98476.66;;;20.74;46.47
41140;BME280;26881;48.784;9.192;2022-09-12T12:09:03;98467.06;;;20.81;42.61
41140;BME280;26881;48.784;9.192;2022-09-12T12:14:39;98462.63;;;20.90;41.42
41140;BME280;26881;48.784;9.192;2022-09-12T12:20:03;98452.56;;;21.10;42.27
41140;BME280;26881;48.784;9.192;2022-09-12T12:25:40;98455.63;;;21.32;42.21
41140;BME280;26881;48.784;9.192;2022-09-12T12:31:11;98448.81;;;21.29;43.78
41140;BME280;26881;48.784;9.192;2022-09-12T12:36:35;98446.00;;;21.31;43.84
41140;BME280;26881;48.784;9.192;2022-09-12T12:41:59;98436.94;;;21.50;42.46
41140;BME280;26881;48.784;9.192;2022-09-12T12:47:26;98445.41;;;21.45;43.64
41140;BME280;26881;48.784;9.192;2022-09-12T12:58:30;98420.28;;;21.56;41.67
41140;BME280;26881;48.784;9.192;2022-09-12T13:03:55;98419.97;;;21.59;42.09
41140;BME280;26881;48.784;9.192;2022-09-12T13:09:22;98416.47;;;21.58;42.00
41140;BME280;26881;48.784;9.192;2022-09-12T13:20:27;98394.34;;;21.50;41.53
41140;BME280;26881;48.784;9.192;2022-09-12T13:25:53;98393.50;;;21.49;42.41
41140;BME280;26881;48.784;9.192;2022-09-12T13:31:23;98389.50;;;21.53;41.60
41140;BME280;26881;48.784;9.192;2022-09-12T13:42:33;98377.56;;;21.65;39.84
41140;BME280;26881;48.784;9.192;2022-09-12T13:48:02;98367.06;;;21.88;38.22
41140;BME280;26881;48.784;9.192;2022-09-12T13:53:28;98373.22;;;21.81;39.65
41140;BME280;26881;48.784;9.192;2022-09-12T14:04:22;98360.91;;;21.96;39.30
41140;BME280;26881;48.784;9.192;2022-09-12T14:10:03;98353.25;;;21.93;39.22
41140;BME280;26881;48.784;9.192;2022-09-12T14:15:29;98340.25;;;22.15;38.44
41140;BME280;26881;48.784;9.192;2022-09-12T14:20:57;98341.72;;;22.17;38.62
41140;BME280;26881;48.784;9.192;2022-09-12T14:26:22;98326.94;;;22.15;38.20
41140;BME280;26881;48.784;9.192;2022-09-12T14:31:45;98323.53;;;22.37;38.51
41140;BME280;26881;48.784;9.192;2022-09-12T14:37:07;98322.50;;;22.55;38.61
41140;BME280;26881;48.784;9.192;2022-09-12T14:42:31;98316.84;;;22.49;38.81
41140;BME280;26881;48.784;9.192;2022-09-12T14:47:53;98322.69;;;22.45;38.58
41140;BME280;26881;48.784;9.192;2022-09-12T14:58:40;98312.56;;;22.40;39.39
41140;BME280;26881;48.784;9.192;2022-09-12T15:04:02;98312.44;;;22.25;39.49
41140;BME280;26881;48.784;9.192;2022-09-12T15:09:24;98304.09;;;22.12;40.30
41140;BME280;26881;48.784;9.192;2022-09-12T15:14:46;98300.44;;;22.13;40.20
41140;BME280;26881;48.784;9.192;2022-09-12T15:20:08;98297.25;;;22.34;40.23
41140;BME280;26881;48.784;9.192;2022-09-12T15:25:30;98301.59;;;22.19;40.04
41140;BME280;26881;48.784;9.192;2022-09-12T15:30:54;98302.28;;;22.13;41.56
41140;BME280;26881;48.784;9.192;2022-09-12T15:36:19;98292.31;;;22.15;41.07
41140;BME280;26881;48.784;9.192;2022-09-12T15:41:41;98296.47;;;22.09;41.59
41140;BME280;26881;48.784;9.192;2022-09-12T15:47:03;98286.81;;;22.00;41.95
41140;BME280;26881;48.784;9.192;2022-09-12T15:57:48;98274.84;;;22.04;42.12
41140;BME280;26881;48.784;9.192;2022-09-12T16:03:19;98265.69;;;22.06;42.16
41140;BME280;26881;48.784;9.192;2022-09-12T16:08:41;98268.38;;;21.98;42.93
41140;BME280;26881;48.784;9.192;2022-09-12T16:14:03;98269.38;;;21.97;42.49
41140;BME280;26881;48.784;9.192;2022-09-12T16:19:25;98253.03;;;22.00;43.05
41140;BME280;26881;48.784;9.192;2022-09-12T16:24:47;98250.06;;;21.95;43.61
41140;BME280;26881;48.784;9.192;2022-09-12T16:30:09;98250.72;;;21.97;43.29
41140;BME280;26881;48.784;9.192;2022-09-12T16:35:31;98248.00;;;22.14;42.30
41140;BME280;26881;48.784;9.192;2022-09-12T16:40:59;98252.56;;;21.88;43.38
41140;BME280;26881;48.784;9.192;2022-09-12T16:46:25;98244.97;;;21.77;43.93
41140;BME280;26881;48.784;9.192;2022-09-12T16:51:50;98249.47;;;21.68;44.25
41140;BME280;26881;48.784;9.192;2022-09-12T16:57:12;98248.66;;;21.68;43.68
41140;BME280;26881;48.784;9.192;2022-09-12T17:02:34;98242.34;;;21.61;44.32
41140;BME280;26881;48.784;9.192;2022-09-12T17:07:56;98248.16;;;21.56;44.44
41140;BME280;26881;48.784;9.192;2022-09-12T17:13:17;98257.16;;;21.47;44.77
41140;BME280;26881;48.784;9.192;2022-09-12T17:18:39;98254.47;;;21.39;45.30
41140;BME280;26881;48.784;9.192;2022-09-12T17:24:02;98255.47;;;21.30;46.37
41140;BME280;26881;48.784;9.192;2022-09-12T17:29:24;98253.63;;;21.22;46.39
41140;BME280;26881;48.784;9.192;2022-09-12T17:34:46;98253.81;;;21.12;47.10
41140;BME280;26881;48.784;9.192;2022-09-12T17:40:08;98259.09;;;21.04;47.17
41140;BME280;26881;48.784;9.192;2022-09-12T17:45:31;98253.13;;;20.94;47.59
41140;BME280;26881;48.784;9.192;2022-09-12T17:50:53;98264.56;;;20.86;47.80
41140;BME280;26881;48.784;9.192;2022-09-12T17:56:14;98262.88;;;20.77;48.22
41140;BME280;26881;48.784;9.192;2022-09-12T18:01:36;98271.66;;;20.69;48.34
41140;BME280;26881;48.784;9.192;2022-09-12T18:07:18;98272.50;;;20.61;48.55
41140;BME280;26881;48.784;9.192;2022-09-12T18:12:40;98274.91;;;20.55;49.03
41140;BME280;26881;48.784;9.192;2022-09-12T18:18:02;98272.06;;;20.48;49.06
41140;BME280;26881;48.784;9.192;2022-09-12T18:23:24;98284.47;;;20.39;49.72
41140;BME280;26881;48.784;9.192;2022-09-12T18:28:46;98277.84;;;20.35;49.97
41140;BME280;26881;48.784;9.192;2022-09-12T18:34:10;98293.06;;;20.25;50.23
41140;BME280;26881;48.784;9.192;2022-09-12T18:39:34;98293.66;;;20.11;51.17
41140;BME280;26881;48.784;9.192;2022-09-12T18:44:55;98294.47;;;20.03;51.48
41140;BME280;26881;48.784;9.192;2022-09-12T18:50:17;98305.19;;;19.93;51.71
41140;BME280;26881;48.784;9.192;2022-09-12T18:55:39;98296.34;;;19.85;52.56
41140;BME280;26881;48.784;9.192;2022-09-12T19:01:16;98293.31;;;19.79;52.56
41140;BME280;26881;48.784;9.192;2022-09-12T19:06:41;98298.09;;;19.76;52.80
41140;BME280;26881;48.784;9.192;2022-09-12T19:12:03;98294.75;;;19.74;52.43
41140;BME280;26881;48.784;9.192;2022-09-12T19:17:25;98296.72;;;19.72;52.48
41140;BME280;26881;48.784;9.192;2022-09-12T19:22:47;98300.25;;;19.54;53.92
41140;BME280;26881;48.784;9.192;2022-09-12T19:28:09;98306.09;;;19.58;53.07
41140;BME280;26881;48.784;9.192;2022-09-12T19:33:30;98294.41;;;19.51;53.22
41140;BME280;26881;48.784;9.192;2022-09-12T19:38:52;98289.81;;;19.35;54.40
41140;BME280;26881;48.784;9.192;2022-09-12T19:44:14;98293.75;;;19.31;54.33
41140;BME280;26881;48.784;9.192;2022-09-12T19:49:39;98291.09;;;19.31;54.45
41140;BME280;26881;48.784;9.192;2022-09-12T19:55:01;98292.38;;;19.27;54.52
41140;BME280;26881;48.784;9.192;2022-09-12T20:00:23;98292.63;;;19.15;55.20
41140;BME280;26881;48.784;9.192;2022-09-12T20:05:45;98283.31;;;19.11;55.52
41140;BME280;26881;48.784;9.192;2022-09-12T20:11:07;98296.03;;;19.08;55.70
41140;BME280;26881;48.784;9.192;2022-09-12T20:16:29;98300.72;;;18.96;56.75
41140;BME280;26881;48.784;9.192;2022-09-12T20:21:51;98308.44;;;18.89;56.72
41140;BME280;26881;48.784;9.192;2022-09-12T20:27:13;98303.06;;;18.71;57.64
41140;BME280;26881;48.784;9.192;2022-09-12T20:32:35;98294.75;;;18.66;58.06
41140;BME280;26881;48.784;9.192;2022-09-12T20:37:57;98275.75;;;18.71;57.49
41140;BME280;26881;48.784;9.192;2022-09-12T20:43:18;98282.31;;;18.77;57.21
41140;BME280;26881;48.784;9.192;2022-09-12T20:48:40;98271.72;;;18.67;57.99
41140;BME280;26881;48.784;9.192;2022-09-12T20:54:04;98270.28;;;18.82;57.10
41140;BME280;26881;48.784;9.192;2022-09-12T20:59:26;98271.03;;;18.92;56.36
41140;BME280;26881;48.784;9.192;2022-09-12T21:04:48;98269.59;;;18.80;57.23
41140;BME280;26881;48.784;9.192;2022-09-12T21:10:11;98276.19;;;18.66;57.92
41140;BME280;26881;48.784;9.192;2022-09-12T21:15:34;98277.53;;;18.52;58.13
41140;BME280;26881;48.784;9.192;2022-09-12T21:20:56;98278.66;;;18.50;58.56
41140;BME280;26881;48.784;9.192;2022-09-12T21:26:18;98287.34;;;18.42;58.83
41140;BME280;26881;48.784;9.192;2022-09-12T21:31:41;98277.44;;;18.44;58.99
41140;BME280;26881;48.784;9.192;2022-09-12T21:37:03;98282.81;;;18.35;59.50
41140;BME280;26881;48.784;9.192;2022-09-12T21:42:25;98292.88;;;18.21;59.87
41140;BME280;26881;48.784;9.192;2022-09-12T21:47:47;98291.50;;;18.17;60.03
41140;BME280;26881;48.784;9.192;2022-09-12T21:53:09;98277.31;;;18.18;60.28
41140;BME280;26881;48.784;9.192;2022-09-12T21:58:31;98271.91;;;18.10;60.58
41140;BME280;26881;48.784;9.192;2022-09-12T22:03:52;98267.28;;;18.12;60.68
41140;BME280;26881;48.784;9.192;2022-09-12T22:09:14;98269.13;;;18.02;61.28
41140;BME280;26881;48.784;9.192;2022-09-12T22:14:37;98264.69;;;18.02;61.64
41140;BME280;26881;48.784;9.192;2022-09-12T22:19:59;98251.16;;;18.05;61.48
41140;BME280;26881;48.784;9.192;2022-09-12T22:25:22;98243.13;;;17.97;62.25
41140;BME280;26881;48.784;9.192;2022-09-12T22:30:48;98234.38;;;17.87;62.53
41140;BME280;26881;48.784;9.192;2022-09-12T22:36:09;98213.91;;;17.89;62.17
41140;BME280;26881;48.784;9.192;2022-09-12T22:41:31;98216.00;;;17.85;62.38
41140;BME280;26881;48.784;9.192;2022-09-12T22:46:53;98215.09;;;17.67;63.88
41140;BME280;26881;48.784;9.192;2022-09-12T22:52:16;98221.94;;;17.50;64.35
41140;BME280;26881;48.784;9.192;2022-09-12T22:57:37;98221.50;;;17.55;64.59
41140;BME280;26881;48.784;9.192;2022-09-12T23:03:00;98239.22;;;17.44;64.83
41140;BME280;26881;48.784;9.192;2022-09-12T23:08:22;98231.84;;;17.38;65.47
41140;BME280;26881;48.784;9.192;2022-09-12T23:13:46;98228.75;;;17.43;65.48
41140;BME280;26881;48.784;9.192;2022-09-12T23:19:08;98230.16;;;17.47;65.41
41140;BME280;26881;48.784;9.192;2022-09-12T23:24:30;98236.28;;;17.38;65.68
41140;BME280;26881;48.784;9.192;2022-09-12T23:29:52;98234.22;;;17.41;65.34
41140;BME280;26881;48.784;9.192;2022-09-12T23:35:15;98227.81;;;17.44;65.59
41140;BME280;26881;48.784;9.192;2022-09-12T23:40:40;98235.31;;;17.48;65.59
41140;BME280;26881;48.784;9.192;2022-09-12T23:46:01;98216.38;;;17.43;65.85
41140;BME280;26881;48.784;9.192;2022-09-12T23:51:25;98202.31;;;17.43;65.61
41140;BME280;26881;48.784;9.192;2022-09-12T23:56:47;98200.13;;;17.38;65.79
